Capo Mele, Italy

12:45 AM CEST on August 28, 2015 (GMT +0200)
ILIGURIA92 | | Change Station
CLOSE
Current Station
Personal Weather Station
Location: Andora, LIGURIA
Elevation: 469 ft
Nearby Weather Stations

Elev 469 ft 43.97 °N, 8.16 °E | Updated 15 minutes ago

Clear
Clear
73.1 °F
Feels Like 77 °F
N
0.0
Wind Variable Wind from SSW
Gusts 1.0 mph

Today
High -- | Low -- °F
--% Chance of Precip.
Yesterday
High -- | Low -- °F
Precip. -- in
6:45 AM 8:10 PM
Waxing Gibbous, 95% visible
Pressure 30.06 in
Visibility -9999.0 miles
Clouds
Heat Index 77 °F
Dew Point 58 °F
Humidity 59%
Rainfall 0.00 in
Snow Depth Not available.
UV Not available.
Pollen Not available.
Air Quality Not available.
Flu Activity Not available.
METAR LIMJ 272220Z 03005KT CAVOK 23/15 Q1018
Pressure 30.06 in
Visibility -9999.0 miles
Clouds
Heat Index 77 °F
Dew Point 58 °F
Humidity 59%
Rainfall 0.00 in
Snow Depth Not available.
UV Not available.
Pollen Not available.
Air Quality Not available.
Flu Activity Not available.
METAR LIMJ 272220Z 03005KT CAVOK 23/15 Q1018

10-Day Weather Forecast

×

Almanac

Astronomy

Aug. 28, 2015 Rise Set
Actual Time
Civil Twilight
Nautical Twilight
Astronomical Twilight
Moon
Length of Visible Light
Length of Day
Tomorrow will be .
, % of the Moon is Illuminated

Today's Extremes

Country Highs Country Lows

Community

WunderPhotos

Upload Photos

1,850,252 photos uploaded!

WunderBlogs® & News

Nearby

Air Quality

  Air Quality AQ Index Pollutant
Not available.

Snow Depth

Station Depth Elevation

Earthquake Activity

City Distance Mag. Time & Date
Minimum magnitude displayed is 2.5.

Coastal Water Temperatures

Place Temperature

Stations

Nearby Weather Stations

Station Location Temp. Windchill Dew Point Humidity Wind Precip. Elev Updated Type